sensor_id;sensor_type;location;lat;lon;timestamp;P1;durP1;ratioP1;P2;durP2;ratioP2
17463;SDS011;62705;52.400;13.270;2022-08-11T00:01:27;5.95;;;1.70;;
17463;SDS011;62705;52.400;13.270;2022-08-11T00:03:55;5.88;;;1.60;;
17463;SDS011;62705;52.400;13.270;2022-08-11T00:06:24;3.72;;;1.25;;
17463;SDS011;62705;52.400;13.270;2022-08-11T00:08:53;3.13;;;1.30;;
17463;SDS011;62705;52.400;13.270;2022-08-11T00:11:19;6.75;;;1.50;;
17463;SDS011;62705;52.400;13.270;2022-08-11T00:13:47;5.25;;;1.48;;
17463;SDS011;62705;52.400;13.270;2022-08-11T00:16:16;3.03;;;1.13;;
17463;SDS011;62705;52.400;13.270;2022-08-11T00:18:43;7.55;;;1.90;;
17463;SDS011;62705;52.400;13.270;2022-08-11T00:21:13;6.32;;;1.50;;
17463;SDS011;62705;52.400;13.270;2022-08-11T00:23:43;3.08;;;1.10;;
17463;SDS011;62705;52.400;13.270;2022-08-11T00:26:11;6.20;;;1.45;;
17463;SDS011;62705;52.400;13.270;2022-08-11T00:28:38;4.68;;;1.20;;
17463;SDS011;62705;52.400;13.270;2022-08-11T00:31:06;5.30;;;1.40;;
17463;SDS011;62705;52.400;13.270;2022-08-11T00:33:36;4.25;;;1.40;;
17463;SDS011;62705;52.400;13.270;2022-08-11T00:36:03;4.20;;;1.27;;
17463;SDS011;62705;52.400;13.270;2022-08-11T00:38:31;3.78;;;1.30;;
17463;SDS011;62705;52.400;13.270;2022-08-11T00:41:03;3.95;;;1.50;;
17463;SDS011;62705;52.400;13.270;2022-08-11T00:43:40;5.68;;;1.38;;
17463;SDS011;62705;52.400;13.270;2022-08-11T00:46:20;5.57;;;1.95;;
17463;SDS011;62705;52.400;13.270;2022-08-11T00:48:59;3.17;;;1.02;;
17463;SDS011;62705;52.400;13.270;2022-08-11T00:51:38;5.03;;;1.33;;
17463;SDS011;62705;52.400;13.270;2022-08-11T00:54:18;4.30;;;1.50;;
17463;SDS011;62705;52.400;13.270;2022-08-11T00:57:18;4.28;;;1.40;;
17463;SDS011;62705;52.400;13.270;2022-08-11T01:00:10;4.07;;;1.30;;
17463;SDS011;62705;52.400;13.270;2022-08-11T01:02:45;6.30;;;1.73;;
17463;SDS011;62705;52.400;13.270;2022-08-11T01:05:35;5.28;;;1.40;;
17463;SDS011;62705;52.400;13.270;2022-08-11T01:08:21;8.93;;;1.52;;
17463;SDS011;62705;52.400;13.270;2022-08-11T01:11:15;4.28;;;1.30;;
17463;SDS011;62705;52.400;13.270;2022-08-11T01:14:05;5.18;;;1.45;;
17463;SDS011;62705;52.400;13.270;2022-08-11T01:17:08;5.28;;;1.50;;
17463;SDS011;62705;52.400;13.270;2022-08-11T01:20:09;7.10;;;1.70;;
17463;SDS011;62705;52.400;13.270;2022-08-11T01:22:58;3.83;;;1.42;;
17463;SDS011;62705;52.400;13.270;2022-08-11T01:25:55;5.88;;;1.50;;
17463;SDS011;62705;52.400;13.270;2022-08-11T01:28:47;6.65;;;1.45;;
17463;SDS011;62705;52.400;13.270;2022-08-11T01:31:47;4.20;;;1.55;;
17463;SDS011;62705;52.400;13.270;2022-08-11T01:34:43;6.57;;;1.70;;
17463;SDS011;62705;52.400;13.270;2022-08-11T01:37:51;4.00;;;1.30;;
17463;SDS011;62705;52.400;13.270;2022-08-11T01:40:51;6.32;;;2.05;;
17463;SDS011;62705;52.400;13.270;2022-08-11T01:43:45;7.53;;;1.52;;
17463;SDS011;62705;52.400;13.270;2022-08-11T01:46:29;3.75;;;1.35;;
17463;SDS011;62705;52.400;13.270;2022-08-11T01:49:00;5.88;;;1.60;;
17463;SDS011;62705;52.400;13.270;2022-08-11T01:51:43;4.93;;;1.60;;
17463;SDS011;62705;52.400;13.270;2022-08-11T01:54:23;4.28;;;1.35;;
17463;SDS011;62705;52.400;13.270;2022-08-11T01:56:57;8.20;;;2.72;;
17463;SDS011;62705;52.400;13.270;2022-08-11T01:59:38;5.88;;;1.90;;
17463;SDS011;62705;52.400;13.270;2022-08-11T02:02:15;5.60;;;1.60;;
17463;SDS011;62705;52.400;13.270;2022-08-11T02:04:49;5.22;;;1.55;;
17463;SDS011;62705;52.400;13.270;2022-08-11T02:07:25;4.82;;;1.35;;
17463;SDS011;62705;52.400;13.270;2022-08-11T02:10:00;5.32;;;1.35;;
17463;SDS011;62705;52.400;13.270;2022-08-11T02:12:40;4.65;;;1.42;;
17463;SDS011;62705;52.400;13.270;2022-08-11T02:15:13;8.88;;;2.00;;
17463;SDS011;62705;52.400;13.270;2022-08-11T02:17:47;7.63;;;1.75;;
17463;SDS011;62705;52.400;13.270;2022-08-11T02:20:22;5.50;;;1.50;;
17463;SDS011;62705;52.400;13.270;2022-08-11T02:22:54;5.63;;;1.70;;
17463;SDS011;62705;52.400;13.270;2022-08-11T02:25:24;4.43;;;1.60;;
17463;SDS011;62705;52.400;13.270;2022-08-11T02:27:57;6.40;;;1.80;;
17463;SDS011;62705;52.400;13.270;2022-08-11T02:30:29;8.10;;;1.80;;
17463;SDS011;62705;52.400;13.270;2022-08-11T02:33:02;5.32;;;1.90;;
17463;SDS011;62705;52.400;13.270;2022-08-11T02:35:40;6.18;;;1.60;;
17463;SDS011;62705;52.400;13.270;2022-08-11T02:38:15;7.97;;;1.80;;
17463;SDS011;62705;52.400;13.270;2022-08-11T02:40:46;4.45;;;1.45;;
17463;SDS011;62705;52.400;13.270;2022-08-11T02:43:21;5.22;;;1.60;;
17463;SDS011;62705;52.400;13.270;2022-08-11T02:45:54;7.53;;;1.80;;
17463;SDS011;62705;52.400;13.270;2022-08-11T02:48:32;7.05;;;1.60;;
17463;SDS011;62705;52.400;13.270;2022-08-11T02:51:09;7.43;;;1.67;;
17463;SDS011;62705;52.400;13.270;2022-08-11T02:53:45;8.68;;;1.50;;
17463;SDS011;62705;52.400;13.270;2022-08-11T02:56:18;7.55;;;2.40;;
17463;SDS011;62705;52.400;13.270;2022-08-11T02:58:54;7.00;;;2.30;;
17463;SDS011;62705;52.400;13.270;2022-08-11T03:01:27;6.95;;;1.70;;
17463;SDS011;62705;52.400;13.270;2022-08-11T03:04:09;6.97;;;1.80;;
17463;SDS011;62705;52.400;13.270;2022-08-11T03:06:44;5.00;;;1.75;;
17463;SDS011;62705;52.400;13.270;2022-08-11T03:11:50;5.68;;;1.80;;
17463;SDS011;62705;52.400;13.270;2022-08-11T03:14:30;6.70;;;1.90;;
17463;SDS011;62705;52.400;13.270;2022-08-11T03:17:04;7.47;;;1.77;;
17463;SDS011;62705;52.400;13.270;2022-08-11T03:19:41;7.80;;;1.85;;
17463;SDS011;62705;52.400;13.270;2022-08-11T03:22:16;8.40;;;1.90;;
17463;SDS011;62705;52.400;13.270;2022-08-11T03:24:55;8.48;;;2.00;;
17463;SDS011;62705;52.400;13.270;2022-08-11T03:27:27;6.80;;;2.08;;
17463;SDS011;62705;52.400;13.270;2022-08-11T03:30:09;7.65;;;2.25;;
17463;SDS011;62705;52.400;13.270;2022-08-11T03:32:40;5.57;;;2.00;;
17463;SDS011;62705;52.400;13.270;2022-08-11T03:35:14;7.63;;;1.90;;
17463;SDS011;62705;52.400;13.270;2022-08-11T03:37:46;9.15;;;1.80;;
17463;SDS011;62705;52.400;13.270;2022-08-11T03:40:29;7.70;;;2.55;;
17463;SDS011;62705;52.400;13.270;2022-08-11T03:43:06;5.85;;;2.00;;
17463;SDS011;62705;52.400;13.270;2022-08-11T03:45:46;7.93;;;2.10;;
17463;SDS011;62705;52.400;13.270;2022-08-11T03:48:20;5.63;;;2.20;;
17463;SDS011;62705;52.400;13.270;2022-08-11T03:50:53;9.05;;;2.30;;
17463;SDS011;62705;52.400;13.270;2022-08-11T03:53:45;6.00;;;2.20;;
17463;SDS011;62705;52.400;13.270;2022-08-11T03:56:23;6.13;;;1.92;;
17463;SDS011;62705;52.400;13.270;2022-08-11T03:59:26;4.88;;;1.90;;
17463;SDS011;62705;52.400;13.270;2022-08-11T04:02:25;8.07;;;1.83;;
17463;SDS011;62705;52.400;13.270;2022-08-11T04:08:19;6.97;;;2.40;;
17463;SDS011;62705;52.400;13.270;2022-08-11T04:11:26;5.22;;;2.13;;
17463;SDS011;62705;52.400;13.270;2022-08-11T04:16:59;5.95;;;2.13;;
17463;SDS011;62705;52.400;13.270;2022-08-11T04:19:46;7.20;;;3.25;;
17463;SDS011;62705;52.400;13.270;2022-08-11T04:22:39;9.88;;;2.47;;
17463;SDS011;62705;52.400;13.270;2022-08-11T04:25:27;6.13;;;2.33;;
17463;SDS011;62705;52.400;13.270;2022-08-11T04:30:57;6.72;;;2.30;;
17463;SDS011;62705;52.400;13.270;2022-08-11T04:33:39;4.97;;;2.13;;
17463;SDS011;62705;52.400;13.270;2022-08-11T04:36:34;7.47;;;2.30;;
17463;SDS011;62705;52.400;13.270;2022-08-11T04:39:13;7.32;;;2.10;;
17463;SDS011;62705;52.400;13.270;2022-08-11T04:42:05;8.00;;;2.40;;
17463;SDS011;62705;52.400;13.270;2022-08-11T04:44:56;6.18;;;2.10;;
17463;SDS011;62705;52.400;13.270;2022-08-11T04:47:53;5.80;;;2.33;;
17463;SDS011;62705;52.400;13.270;2022-08-11T04:50:38;8.95;;;2.13;;
17463;SDS011;62705;52.400;13.270;2022-08-11T04:53:24;7.45;;;2.45;;
17463;SDS011;62705;52.400;13.270;2022-08-11T04:56:02;10.02;;;2.30;;
17463;SDS011;62705;52.400;13.270;2022-08-11T04:58:39;8.63;;;2.55;;
17463;SDS011;62705;52.400;13.270;2022-08-11T05:01:19;5.72;;;2.50;;
17463;SDS011;62705;52.400;13.270;2022-08-11T05:04:10;6.57;;;2.17;;
17463;SDS011;62705;52.400;13.270;2022-08-11T05:06:56;6.13;;;2.50;;
17463;SDS011;62705;52.400;13.270;2022-08-11T05:10:02;9.68;;;2.40;;
17463;SDS011;62705;52.400;13.270;2022-08-11T05:12:35;9.30;;;2.53;;
17463;SDS011;62705;52.400;13.270;2022-08-11T05:15:09;7.53;;;2.83;;
17463;SDS011;62705;52.400;13.270;2022-08-11T05:17:39;7.82;;;2.50;;
17463;SDS011;62705;52.400;13.270;2022-08-11T05:20:09;8.32;;;2.50;;
17463;SDS011;62705;52.400;13.270;2022-08-11T05:22:35;7.07;;;2.33;;
17463;SDS011;62705;52.400;13.270;2022-08-11T05:25:11;7.90;;;2.65;;
17463;SDS011;62705;52.400;13.270;2022-08-11T05:27:44;7.57;;;2.60;;
17463;SDS011;62705;52.400;13.270;2022-08-11T05:30:14;5.95;;;2.63;;
17463;SDS011;62705;52.400;13.270;2022-08-11T05:32:42;11.60;;;2.92;;
17463;SDS011;62705;52.400;13.270;2022-08-11T05:35:11;9.25;;;3.22;;
17463;SDS011;62705;52.400;13.270;2022-08-11T05:37:39;6.72;;;3.05;;
17463;SDS011;62705;52.400;13.270;2022-08-11T05:40:07;11.20;;;3.10;;
17463;SDS011;62705;52.400;13.270;2022-08-11T05:42:36;13.65;;;2.97;;
17463;SDS011;62705;52.400;13.270;2022-08-11T05:45:09;9.00;;;3.00;;
17463;SDS011;62705;52.400;13.270;2022-08-11T05:47:37;10.40;;;2.90;;
17463;SDS011;62705;52.400;13.270;2022-08-11T05:50:05;15.50;;;3.33;;
17463;SDS011;62705;52.400;13.270;2022-08-11T05:52:33;10.63;;;3.22;;
17463;SDS011;62705;52.400;13.270;2022-08-11T05:55:01;13.57;;;3.70;;
17463;SDS011;62705;52.400;13.270;2022-08-11T05:57:29;14.80;;;3.80;;
17463;SDS011;62705;52.400;13.270;2022-08-11T05:59:57;9.88;;;3.30;;
17463;SDS011;62705;52.400;13.270;2022-08-11T06:02:24;7.15;;;3.03;;
17463;SDS011;62705;52.400;13.270;2022-08-11T06:04:53;16.10;;;3.67;;
17463;SDS011;62705;52.400;13.270;2022-08-11T06:07:25;10.35;;;3.10;;
17463;SDS011;62705;52.400;13.270;2022-08-11T06:09:51;10.93;;;3.47;;
17463;SDS011;62705;52.400;13.270;2022-08-11T06:12:21;9.73;;;3.38;;
17463;SDS011;62705;52.400;13.270;2022-08-11T06:14:49;9.55;;;3.03;;
17463;SDS011;62705;52.400;13.270;2022-08-11T06:17:21;9.98;;;3.20;;
17463;SDS011;62705;52.400;13.270;2022-08-11T06:19:48;7.68;;;3.20;;
17463;SDS011;62705;52.400;13.270;2022-08-11T06:22:18;8.75;;;3.13;;
17463;SDS011;62705;52.400;13.270;2022-08-11T06:24:50;16.45;;;4.22;;
17463;SDS011;62705;52.400;13.270;2022-08-11T06:27:20;8.32;;;2.70;;
17463;SDS011;62705;52.400;13.270;2022-08-11T06:29:48;8.25;;;3.13;;
17463;SDS011;62705;52.400;13.270;2022-08-11T06:32:15;7.28;;;2.85;;
17463;SDS011;62705;52.400;13.270;2022-08-11T06:34:50;6.80;;;3.03;;
17463;SDS011;62705;52.400;13.270;2022-08-11T06:37:29;12.52;;;3.10;;
17463;SDS011;62705;52.400;13.270;2022-08-11T06:40:06;8.52;;;2.95;;
17463;SDS011;62705;52.400;13.270;2022-08-11T06:42:37;8.43;;;3.10;;
17463;SDS011;62705;52.400;13.270;2022-08-11T06:45:15;10.98;;;3.25;;
17463;SDS011;62705;52.400;13.270;2022-08-11T06:47:50;10.13;;;3.40;;
17463;SDS011;62705;52.400;13.270;2022-08-11T06:50:17;9.20;;;2.72;;
17463;SDS011;62705;52.400;13.270;2022-08-11T06:55:12;7.68;;;2.55;;
17463;SDS011;62705;52.400;13.270;2022-08-11T06:57:45;8.02;;;2.80;;
17463;SDS011;62705;52.400;13.270;2022-08-11T07:00:11;15.73;;;2.65;;
17463;SDS011;62705;52.400;13.270;2022-08-11T07:02:42;7.90;;;3.08;;
17463;SDS011;62705;52.400;13.270;2022-08-11T07:05:13;10.00;;;2.80;;
17463;SDS011;62705;52.400;13.270;2022-08-11T07:07:57;7.65;;;2.67;;
17463;SDS011;62705;52.400;13.270;2022-08-11T07:10:54;5.70;;;2.33;;
17463;SDS011;62705;52.400;13.270;2022-08-11T07:13:27;6.78;;;2.63;;
17463;SDS011;62705;52.400;13.270;2022-08-11T07:15:57;7.97;;;2.47;;
17463;SDS011;62705;52.400;13.270;2022-08-11T07:18:24;7.78;;;2.47;;
17463;SDS011;62705;52.400;13.270;2022-08-11T07:20:52;6.28;;;2.50;;
17463;SDS011;62705;52.400;13.270;2022-08-11T07:23:30;8.88;;;2.60;;
17463;SDS011;62705;52.400;13.270;2022-08-11T07:26:01;8.30;;;2.45;;
17463;SDS011;62705;52.400;13.270;2022-08-11T07:28:28;7.43;;;2.67;;
17463;SDS011;62705;52.400;13.270;2022-08-11T07:30:57;12.23;;;3.97;;
17463;SDS011;62705;52.400;13.270;2022-08-11T07:33:29;7.63;;;2.47;;
17463;SDS011;62705;52.400;13.270;2022-08-11T07:36:03;6.57;;;2.33;;
17463;SDS011;62705;52.400;13.270;2022-08-11T07:38:33;8.95;;;2.35;;
17463;SDS011;62705;52.400;13.270;2022-08-11T07:41:04;9.55;;;2.50;;
17463;SDS011;62705;52.400;13.270;2022-08-11T07:43:32;8.48;;;2.50;;
17463;SDS011;62705;52.400;13.270;2022-08-11T07:45:59;6.95;;;2.30;;
17463;SDS011;62705;52.400;13.270;2022-08-11T07:48:28;18.73;;;2.55;;
17463;SDS011;62705;52.400;13.270;2022-08-11T07:50:54;5.70;;;2.42;;
17463;SDS011;62705;52.400;13.270;2022-08-11T07:53:21;7.82;;;2.50;;
17463;SDS011;62705;52.400;13.270;2022-08-11T07:55:50;8.27;;;2.10;;
17463;SDS011;62705;52.400;13.270;2022-08-11T07:58:21;6.20;;;2.35;;
17463;SDS011;62705;52.400;13.270;2022-08-11T08:03:14;7.45;;;2.13;;
17463;SDS011;62705;52.400;13.270;2022-08-11T08:05:40;8.52;;;2.35;;
17463;SDS011;62705;52.400;13.270;2022-08-11T08:08:06;6.97;;;2.90;;
17463;SDS011;62705;52.400;13.270;2022-08-11T08:10:33;10.00;;;2.70;;
17463;SDS011;62705;52.400;13.270;2022-08-11T08:12:59;9.82;;;2.15;;
17463;SDS011;62705;52.400;13.270;2022-08-11T08:15:26;9.73;;;2.50;;
17463;SDS011;62705;52.400;13.270;2022-08-11T08:17:52;6.85;;;2.55;;
17463;SDS011;62705;52.400;13.270;2022-08-11T08:20:20;7.10;;;2.22;;
17463;SDS011;62705;52.400;13.270;2022-08-11T08:25:14;8.25;;;2.17;;
17463;SDS011;62705;52.400;13.270;2022-08-11T08:27:41;9.25;;;2.00;;
17463;SDS011;62705;52.400;13.270;2022-08-11T08:30:07;9.50;;;2.10;;
17463;SDS011;62705;52.400;13.270;2022-08-11T08:32:36;7.85;;;2.35;;
17463;SDS011;62705;52.400;13.270;2022-08-11T08:35:04;10.40;;;2.53;;
17463;SDS011;62705;52.400;13.270;2022-08-11T08:37:31;9.40;;;2.40;;
17463;SDS011;62705;52.400;13.270;2022-08-11T08:39:57;8.80;;;2.17;;
17463;SDS011;62705;52.400;13.270;2022-08-11T08:42:23;10.48;;;2.55;;
17463;SDS011;62705;52.400;13.270;2022-08-11T08:44:52;8.13;;;2.20;;
17463;SDS011;62705;52.400;13.270;2022-08-11T08:47:24;7.90;;;2.10;;
17463;SDS011;62705;52.400;13.270;2022-08-11T08:49:56;10.32;;;2.00;;
17463;SDS011;62705;52.400;13.270;2022-08-11T08:52:25;5.70;;;1.83;;
17463;SDS011;62705;52.400;13.270;2022-08-11T08:54:55;8.00;;;1.95;;
17463;SDS011;62705;52.400;13.270;2022-08-11T08:57:26;9.05;;;1.85;;
17463;SDS011;62705;52.400;13.270;2022-08-11T08:59:53;6.60;;;2.10;;
17463;SDS011;62705;52.400;13.270;2022-08-11T09:02:22;6.05;;;1.80;;
17463;SDS011;62705;52.400;13.270;2022-08-11T09:04:48;5.15;;;1.90;;
17463;SDS011;62705;52.400;13.270;2022-08-11T09:07:17;6.05;;;1.90;;
17463;SDS011;62705;52.400;13.270;2022-08-11T09:09:46;8.70;;;1.77;;
17463;SDS011;62705;52.400;13.270;2022-08-11T09:12:14;5.05;;;1.70;;
17463;SDS011;62705;52.400;13.270;2022-08-11T09:14:41;7.15;;;2.13;;
17463;SDS011;62705;52.400;13.270;2022-08-11T09:17:07;5.82;;;2.00;;
17463;SDS011;62705;52.400;13.270;2022-08-11T09:19:33;10.18;;;2.10;;
17463;SDS011;62705;52.400;13.270;2022-08-11T09:21:59;9.88;;;2.22;;
17463;SDS011;62705;52.400;13.270;2022-08-11T09:24:26;4.40;;;1.80;;
17463;SDS011;62705;52.400;13.270;2022-08-11T09:26:52;6.15;;;2.10;;
17463;SDS011;62705;52.400;13.270;2022-08-11T09:29:17;7.35;;;2.10;;
17463;SDS011;62705;52.400;13.270;2022-08-11T09:31:43;4.63;;;1.92;;
17463;SDS011;62705;52.400;13.270;2022-08-11T09:34:10;7.38;;;2.13;;
17463;SDS011;62705;52.400;13.270;2022-08-11T09:36:39;7.68;;;1.90;;
17463;SDS011;62705;52.400;13.270;2022-08-11T09:39:06;6.88;;;2.10;;
17463;SDS011;62705;52.400;13.270;2022-08-11T09:41:35;7.82;;;1.90;;
17463;SDS011;62705;52.400;13.270;2022-08-11T09:44:02;6.05;;;1.95;;
17463;SDS011;62705;52.400;13.270;2022-08-11T09:46:29;5.25;;;2.25;;
17463;SDS011;62705;52.400;13.270;2022-08-11T09:48:56;5.32;;;1.80;;
17463;SDS011;62705;52.400;13.270;2022-08-11T09:51:24;5.10;;;1.80;;
17463;SDS011;62705;52.400;13.270;2022-08-11T09:53:53;5.15;;;2.10;;
17463;SDS011;62705;52.400;13.270;2022-08-11T09:56:21;4.57;;;2.05;;
17463;SDS011;62705;52.400;13.270;2022-08-11T09:58:49;5.68;;;2.05;;
17463;SDS011;62705;52.400;13.270;2022-08-11T10:01:15;12.23;;;2.10;;
17463;SDS011;62705;52.400;13.270;2022-08-11T10:03:44;6.85;;;2.08;;
17463;SDS011;62705;52.400;13.270;2022-08-11T10:06:11;9.05;;;2.10;;
17463;SDS011;62705;52.400;13.270;2022-08-11T10:08:38;6.80;;;1.92;;
17463;SDS011;62705;52.400;13.270;2022-08-11T10:11:05;4.30;;;1.80;;
17463;SDS011;62705;52.400;13.270;2022-08-11T10:13:36;4.70;;;1.80;;
17463;SDS011;62705;52.400;13.270;2022-08-11T10:16:08;7.65;;;2.03;;
17463;SDS011;62705;52.400;13.270;2022-08-11T10:18:36;6.32;;;2.15;;
17463;SDS011;62705;52.400;13.270;2022-08-11T10:21:06;10.60;;;1.80;;
17463;SDS011;62705;52.400;13.270;2022-08-11T10:23:35;8.63;;;2.15;;
17463;SDS011;62705;52.400;13.270;2022-08-11T10:26:02;6.15;;;1.65;;
17463;SDS011;62705;52.400;13.270;2022-08-11T10:28:30;5.63;;;2.03;;
17463;SDS011;62705;52.400;13.270;2022-08-11T10:30:58;5.10;;;1.85;;
17463;SDS011;62705;52.400;13.270;2022-08-11T10:33:26;5.50;;;1.98;;
17463;SDS011;62705;52.400;13.270;2022-08-11T10:35:52;6.25;;;1.92;;
17463;SDS011;62705;52.400;13.270;2022-08-11T10:38:18;5.15;;;1.90;;
17463;SDS011;62705;52.400;13.270;2022-08-11T10:40:44;4.75;;;1.40;;
17463;SDS011;62705;52.400;13.270;2022-08-11T10:43:11;6.38;;;1.75;;
17463;SDS011;62705;52.400;13.270;2022-08-11T10:45:39;5.63;;;1.90;;
17463;SDS011;62705;52.400;13.270;2022-08-11T10:48:06;6.15;;;1.90;;
17463;SDS011;62705;52.400;13.270;2022-08-11T10:50:34;5.85;;;1.85;;
17463;SDS011;62705;52.400;13.270;2022-08-11T10:53:01;5.65;;;1.80;;
17463;SDS011;62705;52.400;13.270;2022-08-11T10:55:27;10.13;;;2.42;;
17463;SDS011;62705;52.400;13.270;2022-08-11T10:57:54;7.82;;;1.95;;
17463;SDS011;62705;52.400;13.270;2022-08-11T11:00:19;5.22;;;2.05;;
17463;SDS011;62705;52.400;13.270;2022-08-11T11:02:45;4.72;;;1.95;;
17463;SDS011;62705;52.400;13.270;2022-08-11T11:05:13;6.75;;;2.05;;
17463;SDS011;62705;52.400;13.270;2022-08-11T11:07:46;6.57;;;1.98;;
17463;SDS011;62705;52.400;13.270;2022-08-11T11:10:18;5.72;;;1.90;;
17463;SDS011;62705;52.400;13.270;2022-08-11T11:12:45;6.75;;;2.17;;
17463;SDS011;62705;52.400;13.270;2022-08-11T11:15:15;5.90;;;2.00;;
17463;SDS011;62705;52.400;13.270;2022-08-11T11:17:44;6.50;;;1.95;;
17463;SDS011;62705;52.400;13.270;2022-08-11T11:20:18;6.28;;;1.92;;
17463;SDS011;62705;52.400;13.270;2022-08-11T11:22:48;6.72;;;2.13;;
17463;SDS011;62705;52.400;13.270;2022-08-11T11:25:21;8.15;;;2.13;;
17463;SDS011;62705;52.400;13.270;2022-08-11T11:28:02;9.15;;;2.20;;
17463;SDS011;62705;52.400;13.270;2022-08-11T11:30:44;6.40;;;2.10;;
17463;SDS011;62705;52.400;13.270;2022-08-11T11:33:20;6.28;;;2.20;;
17463;SDS011;62705;52.400;13.270;2022-08-11T11:35:53;6.13;;;2.35;;
17463;SDS011;62705;52.400;13.270;2022-08-11T11:38:31;6.43;;;1.90;;
17463;SDS011;62705;52.400;13.270;2022-08-11T11:40:56;5.28;;;1.95;;
17463;SDS011;62705;52.400;13.270;2022-08-11T11:43:23;6.05;;;2.00;;
17463;SDS011;62705;52.400;13.270;2022-08-11T11:45:48;4.85;;;1.77;;
17463;SDS011;62705;52.400;13.270;2022-08-11T11:48:14;10.82;;;2.13;;
17463;SDS011;62705;52.400;13.270;2022-08-11T11:50:40;7.28;;;2.10;;
17463;SDS011;62705;52.400;13.270;2022-08-11T11:53:07;5.95;;;2.20;;
17463;SDS011;62705;52.400;13.270;2022-08-11T11:55:35;9.48;;;2.30;;
17463;SDS011;62705;52.400;13.270;2022-08-11T11:58:02;5.90;;;2.13;;
17463;SDS011;62705;52.400;13.270;2022-08-11T12:00:29;6.40;;;2.10;;
17463;SDS011;62705;52.400;13.270;2022-08-11T12:02:55;7.60;;;2.47;;
17463;SDS011;62705;52.400;13.270;2022-08-11T12:05:23;5.72;;;1.92;;
17463;SDS011;62705;52.400;13.270;2022-08-11T12:07:50;7.13;;;2.40;;
17463;SDS011;62705;52.400;13.270;2022-08-11T12:10:17;6.45;;;2.17;;
17463;SDS011;62705;52.400;13.270;2022-08-11T12:12:44;6.20;;;1.90;;
17463;SDS011;62705;52.400;13.270;2022-08-11T12:15:11;6.70;;;2.45;;
17463;SDS011;62705;52.400;13.270;2022-08-11T12:17:37;4.95;;;2.00;;
17463;SDS011;62705;52.400;13.270;2022-08-11T12:20:03;11.98;;;2.20;;
17463;SDS011;62705;52.400;13.270;2022-08-11T12:22:31;5.63;;;2.10;;
17463;SDS011;62705;52.400;13.270;2022-08-11T12:24:57;5.15;;;2.08;;
17463;SDS011;62705;52.400;13.270;2022-08-11T12:27:23;4.50;;;1.90;;
17463;SDS011;62705;52.400;13.270;2022-08-11T12:29:54;5.30;;;2.15;;
17463;SDS011;62705;52.400;13.270;2022-08-11T12:32:23;4.47;;;1.80;;
17463;SDS011;62705;52.400;13.270;2022-08-11T12:34:51;5.47;;;1.90;;
17463;SDS011;62705;52.400;13.270;2022-08-11T12:37:19;7.25;;;2.00;;
17463;SDS011;62705;52.400;13.270;2022-08-11T12:39:47;7.60;;;2.03;;
17463;SDS011;62705;52.400;13.270;2022-08-11T12:42:16;10.15;;;2.47;;
17463;SDS011;62705;52.400;13.270;2022-08-11T12:44:42;5.85;;;1.70;;
17463;SDS011;62705;52.400;13.270;2022-08-11T12:47:09;6.40;;;2.17;;
17463;SDS011;62705;52.400;13.270;2022-08-11T12:49:37;8.02;;;2.00;;
17463;SDS011;62705;52.400;13.270;2022-08-11T12:52:08;6.30;;;1.98;;
17463;SDS011;62705;52.400;13.270;2022-08-11T12:57:19;7.00;;;2.20;;
17463;SDS011;62705;52.400;13.270;2022-08-11T12:59:50;7.82;;;2.08;;
17463;SDS011;62705;52.400;13.270;2022-08-11T13:02:18;5.45;;;2.13;;
17463;SDS011;62705;52.400;13.270;2022-08-11T13:04:45;8.80;;;2.03;;
17463;SDS011;62705;52.400;13.270;2022-08-11T13:07:11;6.05;;;1.95;;
17463;SDS011;62705;52.400;13.270;2022-08-11T13:09:38;5.60;;;2.15;;
17463;SDS011;62705;52.400;13.270;2022-08-11T13:12:05;5.43;;;2.13;;
17463;SDS011;62705;52.400;13.270;2022-08-11T13:14:31;6.50;;;2.00;;
17463;SDS011;62705;52.400;13.270;2022-08-11T13:16:58;7.32;;;2.08;;
17463;SDS011;62705;52.400;13.270;2022-08-11T13:19:25;6.32;;;2.10;;
17463;SDS011;62705;52.400;13.270;2022-08-11T13:21:51;7.55;;;1.80;;
17463;SDS011;62705;52.400;13.270;2022-08-11T13:24:17;4.43;;;1.88;;
17463;SDS011;62705;52.400;13.270;2022-08-11T13:26:45;5.35;;;1.80;;
17463;SDS011;62705;52.400;13.270;2022-08-11T13:29:12;7.90;;;2.10;;
17463;SDS011;62705;52.400;13.270;2022-08-11T13:31:39;6.38;;;2.03;;
17463;SDS011;62705;52.400;13.270;2022-08-11T13:34:05;7.53;;;1.80;;
17463;SDS011;62705;52.400;13.270;2022-08-11T13:36:33;6.50;;;2.13;;
17463;SDS011;62705;52.400;13.270;2022-08-11T13:43:52;5.43;;;1.92;;
17463;SDS011;62705;52.400;13.270;2022-08-11T13:46:19;4.68;;;1.80;;
17463;SDS011;62705;52.400;13.270;2022-08-11T13:48:46;3.90;;;1.50;;
17463;SDS011;62705;52.400;13.270;2022-08-11T13:51:13;6.85;;;1.80;;
17463;SDS011;62705;52.400;13.270;2022-08-11T13:53:40;6.60;;;1.80;;
17463;SDS011;62705;52.400;13.270;2022-08-11T13:56:06;4.50;;;1.75;;
17463;SDS011;62705;52.400;13.270;2022-08-11T13:58:32;6.15;;;1.98;;
17463;SDS011;62705;52.400;13.270;2022-08-11T14:00:58;5.13;;;1.80;;
17463;SDS011;62705;52.400;13.270;2022-08-11T14:03:24;5.05;;;2.10;;
17463;SDS011;62705;52.400;13.270;2022-08-11T14:05:52;6.43;;;1.83;;
17463;SDS011;62705;52.400;13.270;2022-08-11T14:08:23;4.68;;;1.70;;
17463;SDS011;62705;52.400;13.270;2022-08-11T14:10:52;6.53;;;1.60;;
17463;SDS011;62705;52.400;13.270;2022-08-11T14:13:23;3.78;;;1.50;;
17463;SDS011;62705;52.400;13.270;2022-08-11T14:15:49;6.05;;;1.52;;
17463;SDS011;62705;52.400;13.270;2022-08-11T14:18:17;5.00;;;1.65;;
17463;SDS011;62705;52.400;13.270;2022-08-11T14:20:46;13.38;;;1.77;;
17463;SDS011;62705;52.400;13.270;2022-08-11T14:23:16;5.78;;;1.60;;
17463;SDS011;62705;52.400;13.270;2022-08-11T14:25:43;5.65;;;1.60;;
17463;SDS011;62705;52.400;13.270;2022-08-11T14:28:10;7.15;;;1.88;;
17463;SDS011;62705;52.400;13.270;2022-08-11T14:30:36;8.02;;;1.70;;
17463;SDS011;62705;52.400;13.270;2022-08-11T14:33:01;6.70;;;1.55;;
17463;SDS011;62705;52.400;13.270;2022-08-11T14:35:28;5.00;;;1.50;;
17463;SDS011;62705;52.400;13.270;2022-08-11T14:37:54;6.88;;;1.52;;
17463;SDS011;62705;52.400;13.270;2022-08-11T14:40:21;8.00;;;1.40;;
17463;SDS011;62705;52.400;13.270;2022-08-11T14:42:47;4.70;;;1.65;;
17463;SDS011;62705;52.400;13.270;2022-08-11T14:45:14;8.25;;;1.70;;
17463;SDS011;62705;52.400;13.270;2022-08-11T14:47:42;9.98;;;1.52;;
17463;SDS011;62705;52.400;13.270;2022-08-11T14:50:10;7.25;;;1.63;;
17463;SDS011;62705;52.400;13.270;2022-08-11T14:52:37;4.90;;;1.70;;
17463;SDS011;62705;52.400;13.270;2022-08-11T14:55:07;9.27;;;1.83;;
17463;SDS011;62705;52.400;13.270;2022-08-11T14:57:34;5.60;;;1.58;;
17463;SDS011;62705;52.400;13.270;2022-08-11T15:00:02;8.63;;;1.70;;
17463;SDS011;62705;52.400;13.270;2022-08-11T15:02:30;6.03;;;1.50;;
17463;SDS011;62705;52.400;13.270;2022-08-11T15:05:00;4.65;;;1.55;;
17463;SDS011;62705;52.400;13.270;2022-08-11T15:07:28;4.40;;;1.42;;
17463;SDS011;62705;52.400;13.270;2022-08-11T15:09:56;4.25;;;1.30;;
17463;SDS011;62705;52.400;13.270;2022-08-11T15:12:22;3.80;;;1.40;;
17463;SDS011;62705;52.400;13.270;2022-08-11T15:14:48;4.38;;;1.50;;
17463;SDS011;62705;52.400;13.270;2022-08-11T15:17:14;3.28;;;1.33;;
17463;SDS011;62705;52.400;13.270;2022-08-11T15:19:42;4.20;;;1.35;;
17463;SDS011;62705;52.400;13.270;2022-08-11T15:22:13;8.23;;;1.50;;
17463;SDS011;62705;52.400;13.270;2022-08-11T15:24:39;4.57;;;1.20;;
17463;SDS011;62705;52.400;13.270;2022-08-11T15:27:07;4.40;;;1.55;;
17463;SDS011;62705;52.400;13.270;2022-08-11T15:29:36;6.88;;;1.30;;